Home PIREPS Pireps

Flight BEL1063

  • Submitted By: Marc Toussaint
  • Departure Airport: Dublin Airport (EIDW)
  • Arrival Airport: Manchester Airport (EGCC)
  • Aircraft: A319-112 (OO-SSR)
  • Flight Time: 00.41
  • Date Submitted: 11/02/2018
  • Route: EIDW-EGCC
  • Status: Accepted
Flight Details
Gross Revenue:
(113 load / € 0.00 per unit
€ 0.00
Fuel Cost:
(2112 fuel used @ 0 / unit)
€ 0.00

Additional Log Information:

View Log

Aircraft Used in flight is Airbus A320-211 IAE Air New Zealand ZK-OXC
11:54 Brakes are On
11:54 Brakes are Released
11:56 You Took off @ 141 Knots and Flaps at Position 1
Departure Weather
EIDW 110930Z 25019KT 9999 FEW010 SCT014 01/M01 Q1004 R10/190095 R16/190095 NOSIGrn
11:56 Landing Gear Up @ 155 Knots and 290 Feet
12:27 Landing Gear Down @ 184 Knots and 1490 Feet
12:29 You Landed @ 162 Knots and with -450 Vertical Speed
Arrival Weather
EGCC 110950Z 26011KT 9999 5000S VCSH FEW009CB FEW015TCU SCT024 02/01 Q1000 RETS RESN RERArn
12:35 Brakes are On
12:36 Paused
12:36 Brussels Bel-Track1.0.1.2

Route Map

Corporate About Us Our Team Vacancies Information Fleet Route Network Rules and Regulations Operations Flight Schedules Event Center Tours Partners IVAO Vatsim Acars dev FSCB

fb Users Online Belgium Glenn Sonck, Belgium Serge Van Laethem,
2 Pilot(s) and 140 Guest(s) Online
CMS by phpVMS - Design by Crazycreatives.com - Copyright © 2018 - Brussels Airlines Virtual